Time;durP1;ratioP1;P1;durP2;ratioP2;P2;SDS_P1;SDS_P2;PMS_P1;PMS_P2;Temp;Humidity;BMP_temperature;BMP_pressure;BME280_temperature;BME280_humidity;BME280_pressure;Samples;Min_cycle;Max_cycle;Signal;HPM_P1;HPM_P2
2023/07/28 00:01:32;;;;;;;27.55;12.70;;;17.50;99.90;;;;;;4994251;28;20046;-77
2023/07/28 00:03:58;;;;;;;35.08;13.55;;;17.50;99.90;;;;;;4991813;28;20038;-77
2023/07/28 00:06:24;;;;;;;34.85;13.75;;;17.50;99.90;;;;;;4994662;28;20487;-77
2023/07/28 00:08:50;;;;;;;31.13;13.60;;;17.50;99.90;;;;;;4995269;28;20518;-77
2023/07/28 00:11:16;;;;;;;34.65;13.18;;;17.50;99.90;;;;;;5008570;28;20044;-77
2023/07/28 00:13:42;;;;;;;38.95;15.27;;;17.50;99.90;;;;;;5011460;28;20038;-77
2023/07/28 00:16:09;;;;;;;37.50;13.90;;;17.50;99.90;;;;;;5027240;28;20104;-77
2023/07/28 00:18:35;;;;;;;31.48;13.90;;;17.50;99.90;;;;;;5011006;28;20037;-77
2023/07/28 00:21:00;;;;;;;31.20;13.73;;;17.50;99.90;;;;;;4994125;28;20048;-77
2023/07/28 00:23:27;;;;;;;28.00;13.25;;;17.50;99.90;;;;;;4992854;28;20045;-77
2023/07/28 00:25:52;;;;;;;33.75;13.57;;;17.50;99.90;;;;;;5010307;28;20371;-77
2023/07/28 00:28:18;;;;;;;31.08;12.55;;;17.50;99.90;;;;;;4994558;28;20046;-77
2023/07/28 00:30:44;;;;;;;36.67;13.63;;;17.50;99.90;;;;;;4994609;28;20045;-77
2023/07/28 00:33:09;;;;;;;34.55;13.23;;;17.50;99.90;;;;;;5008142;28;20073;-77
2023/07/28 00:35:35;;;;;;;33.45;14.05;;;17.50;99.90;;;;;;4993661;28;20038;-77
2023/07/28 00:38:01;;;;;;;31.80;12.68;;;17.50;99.90;;;;;;5009879;28;20121;-77
2023/07/28 00:40:27;;;;;;;35.78;14.30;;;17.40;99.90;;;;;;4993674;28;20077;-77
2023/07/28 00:42:52;;;;;;;32.60;14.15;;;17.50;99.90;;;;;;4994523;28;20124;-77
2023/07/28 00:45:18;;;;;;;28.83;13.45;;;17.40;99.90;;;;;;5010724;28;20046;-77
2023/07/28 00:47:45;;;;;;;39.13;14.68;;;17.50;99.90;;;;;;4993266;28;20470;-77
2023/07/28 00:50:11;;;;;;;31.60;13.65;;;17.50;99.90;;;;;;4993393;28;20495;-77
2023/07/28 00:52:38;;;;;;;31.20;12.85;;;17.40;99.90;;;;;;5010125;28;20042;-77
2023/07/28 00:55:05;;;;;;;32.13;12.75;;;17.40;99.90;;;;;;4993817;28;20040;-77
2023/07/28 00:57:31;;;;;;;33.38;12.88;;;17.40;99.90;;;;;;5009489;28;20422;-77
2023/07/28 00:59:57;;;;;;;40.55;14.25;;;17.40;99.90;;;;;;4974396;28;20046;-77
2023/07/28 01:02:23;;;;;;;28.58;13.98;;;17.40;99.90;;;;;;5006897;28;20092;-77
2023/07/28 01:04:49;;;;;;;34.83;14.65;;;17.40;99.90;;;;;;4992096;28;20050;-77
2023/07/28 01:07:53;;;;;;;38.38;15.00;;;17.40;99.90;;;;;;4986501;28;20084;-77
2023/07/28 01:10:25;;;;;;;33.67;13.90;;;17.40;99.90;;;;;;4990315;28;20045;-77
2023/07/28 01:12:50;;;;;;;39.10;14.60;;;17.40;99.90;;;;;;4991738;28;20050;-77
2023/07/28 01:15:16;;;;;;;40.00;14.55;;;17.40;99.90;;;;;;4993351;28;20100;-77
2023/07/28 01:17:42;;;;;;;30.77;14.30;;;17.40;99.90;;;;;;5008797;28;20130;-77
2023/07/28 01:20:08;;;;;;;40.08;15.43;;;17.40;99.90;;;;;;5009611;28;20073;-77
2023/07/28 01:22:48;;;;;;;42.60;15.32;;;17.40;99.90;;;;;;5008972;28;20078;-77
2023/07/28 01:25:42;;;;;;;37.67;15.27;;;17.40;99.90;;;;;;5009694;28;20041;-77
2023/07/28 01:28:08;;;;;;;39.83;15.55;;;17.40;99.90;;;;;;4993468;28;20054;-77
2023/07/28 01:30:34;;;;;;;44.85;16.45;;;17.40;99.90;;;;;;5009193;28;20570;-77
2023/07/28 01:32:59;;;;;;;39.92;15.88;;;17.40;99.90;;;;;;5007956;28;20119;-77
2023/07/28 01:35:26;;;;;;;45.70;16.75;;;17.40;99.90;;;;;;4993351;28;20033;-77
2023/07/28 01:37:52;;;;;;;42.03;17.30;;;17.40;99.90;;;;;;5008819;28;20385;-77
2023/07/28 01:40:18;;;;;;;41.03;16.33;;;17.40;99.90;;;;;;4956405;28;20098;-76
2023/07/28 01:42:44;;;;;;;38.28;16.25;;;17.40;99.90;;;;;;4996401;28;20042;-76
2023/07/28 01:45:10;;;;;;;42.85;16.30;;;17.40;99.90;;;;;;4976767;28;20298;-76
2023/07/28 01:47:35;;;;;;;43.40;16.73;;;17.40;99.90;;;;;;5009458;28;20072;-77
2023/07/28 01:50:01;;;;;;;45.40;16.63;;;17.40;99.90;;;;;;4987248;28;20045;-77
2023/07/28 01:52:27;;;;;;;52.30;16.92;;;17.40;99.90;;;;;;4992059;28;20042;-77
2023/07/28 01:54:53;;;;;;;49.30;17.38;;;17.40;99.90;;;;;;4990059;28;20042;-77
2023/07/28 01:57:18;;;;;;;48.35;17.77;;;17.40;99.90;;;;;;4990082;28;20467;-77
2023/07/28 01:59:44;;;;;;;44.92;16.33;;;17.40;99.90;;;;;;4996344;28;20045;-76
2023/07/28 02:02:10;;;;;;;48.20;16.08;;;17.40;99.90;;;;;;4965173;28;20062;-77
2023/07/28 02:04:35;;;;;;;58.10;16.98;;;17.40;99.90;;;;;;4977322;28;20042;-77
2023/07/28 02:07:01;;;;;;;52.22;16.45;;;17.40;99.90;;;;;;4992461;28;20518;-77
2023/07/28 02:09:27;;;;;;;47.72;17.63;;;17.40;99.90;;;;;;4977076;28;20046;-77
2023/07/28 02:11:53;;;;;;;46.75;17.42;;;17.40;99.90;;;;;;4974972;28;20441;-77
2023/07/28 02:14:18;;;;;;;55.83;17.58;;;17.40;99.90;;;;;;4946247;28;20116;-77
2023/07/28 02:16:44;;;;;;;42.97;16.40;;;17.40;99.90;;;;;;4977027;28;20040;-77
2023/07/28 02:19:10;;;;;;;46.85;17.73;;;17.40;99.90;;;;;;4989803;28;20403;-77
2023/07/28 02:21:36;;;;;;;46.10;17.45;;;17.40;99.90;;;;;;4974577;28;20350;-77
2023/07/28 02:24:01;;;;;;;47.55;18.25;;;17.40;99.90;;;;;;4944731;28;20086;-77
2023/07/28 02:26:27;;;;;;;52.67;18.40;;;17.40;99.90;;;;;;4974939;28;20046;-77
2023/07/28 02:28:53;;;;;;;66.32;18.60;;;17.40;99.90;;;;;;4979290;28;20061;-77
2023/07/28 02:31:18;;;;;;;48.80;17.83;;;17.40;99.90;;;;;;4978540;28;20056;-77
2023/07/28 02:33:44;;;;;;;58.08;19.83;;;17.40;99.90;;;;;;4956990;28;20096;-77
2023/07/28 02:36:10;;;;;;;44.22;16.58;;;17.40;99.90;;;;;;4962034;28;20573;-77
2023/07/28 02:38:35;;;;;;;43.92;18.17;;;17.40;99.90;;;;;;4995095;28;20069;-77
2023/07/28 02:41:03;;;;;;;48.00;18.17;;;17.40;99.90;;;;;;4976906;28;20423;-77
2023/07/28 02:43:28;;;;;;;48.35;18.00;;;17.40;99.90;;;;;;4977042;28;20096;-77
2023/07/28 02:45:56;;;;;;;43.80;17.75;;;17.40;99.90;;;;;;4974326;28;20510;-77
2023/07/28 02:48:22;;;;;;;48.08;17.30;;;17.40;99.90;;;;;;4996483;28;20050;-77
2023/07/28 02:50:51;;;;;;;57.40;19.55;;;17.40;99.90;;;;;;4979486;28;20423;-77
2023/07/28 02:53:18;;;;;;;52.40;18.55;;;17.40;99.90;;;;;;4996147;28;20092;-77
2023/07/28 02:55:44;;;;;;;43.50;16.90;;;17.40;99.90;;;;;;4979540;28;20046;-77
2023/07/28 02:58:10;;;;;;;52.05;17.40;;;17.40;99.90;;;;;;4979664;28;20062;-77
2023/07/28 03:00:40;;;;;;;47.88;17.52;;;17.40;99.90;;;;;;4979934;28;20099;-77
2023/07/28 03:03:07;;;;;;;44.58;16.63;;;17.40;99.90;;;;;;4980446;28;20072;-77
2023/07/28 03:05:32;;;;;;;43.15;17.90;;;17.40;99.90;;;;;;4963135;28;20120;-77
2023/07/28 03:07:59;;;;;;;39.88;16.20;;;17.40;99.90;;;;;;4996301;28;20578;-77
2023/07/28 03:10:25;;;;;;;46.90;17.10;;;17.40;99.90;;;;;;4979739;28;20048;-77
2023/07/28 03:12:50;;;;;;;45.58;16.45;;;17.40;99.90;;;;;;4979554;28;20030;-77
2023/07/28 03:15:16;;;;;;;41.33;15.57;;;17.40;99.90;;;;;;4978929;28;20038;-77
2023/07/28 03:17:42;;;;;;;38.83;15.85;;;17.40;99.90;;;;;;4963811;28;20077;-77
2023/07/28 03:20:08;;;;;;;49.72;16.95;;;17.40;99.90;;;;;;4962925;28;20479;-77
2023/07/28 03:22:34;;;;;;;46.22;16.30;;;17.40;99.90;;;;;;4995156;28;20074;-77
2023/07/28 03:24:59;;;;;;;40.28;15.77;;;17.40;99.90;;;;;;4963090;28;20034;-77
2023/07/28 03:27:25;;;;;;;43.08;16.20;;;17.40;99.90;;;;;;4994762;28;20050;-77
2023/07/28 03:29:51;;;;;;;39.80;17.25;;;17.40;99.90;;;;;;4995356;28;20045;-77
2023/07/28 03:32:17;;;;;;;40.65;16.08;;;17.40;99.90;;;;;;4979156;28;20042;-77
2023/07/28 03:34:43;;;;;;;36.75;15.25;;;17.40;99.90;;;;;;4993915;28;20410;-77
2023/07/28 03:37:08;;;;;;;45.53;16.25;;;17.40;99.90;;;;;;4998344;28;20052;-77
2023/07/28 03:39:34;;;;;;;43.08;18.42;;;17.40;99.90;;;;;;4978070;28;20487;-77
2023/07/28 03:42:00;;;;;;;47.30;18.05;;;17.40;99.90;;;;;;4977387;28;20487;-77
2023/07/28 03:44:26;;;;;;;42.63;16.85;;;17.40;99.90;;;;;;5011805;28;20049;-77
2023/07/28 03:46:51;;;;;;;40.90;18.02;;;17.40;99.90;;;;;;4995682;28;20384;-77
2023/07/28 03:49:17;;;;;;;39.80;17.27;;;17.40;99.90;;;;;;4979132;28;20045;-77
2023/07/28 03:51:43;;;;;;;39.92;16.95;;;17.40;99.90;;;;;;4977500;28;20104;-77
2023/07/28 03:54:08;;;;;;;44.42;17.38;;;17.40;99.90;;;;;;4978756;28;20502;-77
2023/07/28 03:56:34;;;;;;;40.03;16.67;;;17.40;99.90;;;;;;4991324;28;20488;-77
2023/07/28 03:59:00;;;;;;;44.35;16.73;;;17.40;99.90;;;;;;4965034;28;20539;-77
2023/07/28 04:01:25;;;;;;;40.08;17.10;;;17.40;99.90;;;;;;5010104;28;20111;-77
2023/07/28 04:03:51;;;;;;;47.47;16.98;;;17.40;99.90;;;;;;4977648;28;20050;-77
2023/07/28 04:06:17;;;;;;;47.83;17.83;;;17.40;99.90;;;;;;4996356;28;20038;-77
2023/07/28 04:08:42;;;;;;;52.35;17.27;;;17.40;99.90;;;;;;4978781;28;20054;-77
2023/07/28 04:11:09;;;;;;;47.40;16.92;;;17.40;99.90;;;;;;4990996;28;20483;-77
2023/07/28 04:13:35;;;;;;;44.92;16.88;;;17.50;99.90;;;;;;4990530;28;20133;-77
2023/07/28 04:16:01;;;;;;;43.60;17.13;;;17.40;99.90;;;;;;4978153;28;20117;-77
2023/07/28 04:18:27;;;;;;;39.67;16.58;;;17.40;99.90;;;;;;4977417;28;20070;-77
2023/07/28 04:20:53;;;;;;;41.38;16.00;;;17.50;99.90;;;;;;4977309;28;20080;-77
2023/07/28 04:23:19;;;;;;;46.50;16.33;;;17.50;99.90;;;;;;4977378;28;20173;-77
2023/07/28 04:25:44;;;;;;;46.22;16.08;;;17.50;99.90;;;;;;4991790;28;20046;-77
2023/07/28 04:28:10;;;;;;;42.25;16.42;;;17.50;99.90;;;;;;4958194;28;20384;-77
2023/07/28 04:30:36;;;;;;;49.10;17.67;;;17.50;99.90;;;;;;4958435;28;20526;-77
2023/07/28 04:33:01;;;;;;;44.92;17.95;;;17.50;99.90;;;;;;4992071;28;20446;-77
2023/07/28 04:35:30;;;;;;;43.72;17.88;;;17.50;99.90;;;;;;4990179;28;20069;-77
2023/07/28 04:37:55;;;;;;;51.22;15.93;;;17.50;99.90;;;;;;4959160;28;20061;-77
2023/07/28 04:40:21;;;;;;;36.72;15.80;;;17.50;99.90;;;;;;4977821;28;20046;-77
2023/07/28 04:42:47;;;;;;;41.97;16.65;;;17.50;99.90;;;;;;4993657;28;20592;-77
2023/07/28 04:45:12;;;;;;;44.70;17.23;;;17.50;99.90;;;;;;4992863;28;20042;-77
2023/07/28 04:47:38;;;;;;;37.97;16.30;;;17.50;99.90;;;;;;4992223;28;20050;-77
2023/07/28 04:50:04;;;;;;;36.40;14.70;;;17.50;99.90;;;;;;4960239;28;20041;-77
2023/07/28 04:52:30;;;;;;;38.33;16.25;;;17.50;99.90;;;;;;4977546;28;20418;-77
2023/07/28 04:54:55;;;;;;;46.15;17.60;;;17.50;99.90;;;;;;4992626;28;20092;-77
2023/07/28 04:57:21;;;;;;;35.75;16.00;;;17.60;99.90;;;;;;4961259;28;20033;-77
2023/07/28 04:59:47;;;;;;;40.10;16.27;;;17.50;99.90;;;;;;4993169;28;20037;-77
2023/07/28 05:02:12;;;;;;;39.75;17.52;;;17.50;99.90;;;;;;4984355;28;20161;-77
2023/07/28 05:04:38;;;;;;;53.63;18.15;;;17.60;99.90;;;;;;4990272;28;20042;-77
2023/07/28 05:07:04;;;;;;;42.60;16.35;;;17.60;99.90;;;;;;4992454;28;20418;-77
2023/07/28 05:09:30;;;;;;;36.50;17.02;;;17.60;99.90;;;;;;5008760;28;20503;-77
2023/07/28 05:11:55;;;;;;;40.22;16.55;;;17.60;99.90;;;;;;4977104;28;20044;-77
2023/07/28 05:14:21;;;;;;;42.15;17.08;;;17.60;99.90;;;;;;4993330;28;20040;-77
2023/07/28 05:16:47;;;;;;;43.97;16.38;;;17.60;99.90;;;;;;4971903;28;20034;-77
2023/07/28 05:19:13;;;;;;;33.50;16.25;;;17.60;99.90;;;;;;4976731;28;20038;-77
2023/07/28 05:21:39;;;;;;;40.95;16.63;;;17.60;99.90;;;;;;4976241;28;20033;-77
2023/07/28 05:24:05;;;;;;;40.55;16.23;;;17.60;99.90;;;;;;4960853;28;20099;-77
2023/07/28 05:26:30;;;;;;;40.70;17.58;;;17.60;99.90;;;;;;4975262;28;20478;-77
2023/07/28 05:28:56;;;;;;;36.08;15.02;;;17.60;99.90;;;;;;4963310;28;20045;-77
2023/07/28 05:31:22;;;;;;;42.72;16.05;;;17.60;99.90;;;;;;4992912;28;20500;-77
2023/07/28 05:33:47;;;;;;;35.78;16.85;;;17.60;99.90;;;;;;4960806;28;20042;-77
2023/07/28 05:36:13;;;;;;;36.55;15.60;;;17.60;99.90;;;;;;4976006;28;20096;-77
2023/07/28 05:38:39;;;;;;;40.95;15.70;;;17.60;99.90;;;;;;4975840;28;20103;-77
2023/07/28 05:41:04;;;;;;;38.00;15.70;;;17.70;99.90;;;;;;4993206;28;20042;-77
2023/07/28 05:43:31;;;;;;;36.90;16.17;;;17.70;99.90;;;;;;4961109;28;20044;-77
2023/07/28 05:45:58;;;;;;;35.30;15.75;;;17.70;99.90;;;;;;4976802;28;20115;-77
2023/07/28 05:48:24;;;;;;;32.20;14.80;;;17.70;99.90;;;;;;4978671;28;20510;-77
2023/07/28 05:50:51;;;;;;;37.75;16.05;;;17.70;99.90;;;;;;5007844;28;20038;-77
2023/07/28 05:53:17;;;;;;;39.75;16.33;;;17.70;99.90;;;;;;4977315;28;20037;-77
2023/07/28 05:55:42;;;;;;;36.28;17.02;;;17.70;99.90;;;;;;4991466;28;20043;-77
2023/07/28 05:58:08;;;;;;;38.85;16.05;;;17.70;99.90;;;;;;4976439;28;20117;-78
2023/07/28 06:00:34;;;;;;;38.00;16.27;;;17.80;99.90;;;;;;4976311;28;20049;-78
2023/07/28 06:02:59;;;;;;;35.53;15.70;;;17.70;99.90;;;;;;4994495;28;20042;-77
2023/07/28 06:05:25;;;;;;;36.25;15.90;;;17.70;99.90;;;;;;4996438;28;20053;-77
2023/07/28 06:07:51;;;;;;;35.35;15.45;;;17.70;99.90;;;;;;5013075;28;20045;-77
2023/07/28 06:10:17;;;;;;;38.47;17.13;;;17.70;99.90;;;;;;4980947;28;20360;-77
2023/07/28 06:12:43;;;;;;;36.33;16.52;;;17.70;99.90;;;;;;4964470;28;20062;-77
2023/07/28 06:15:09;;;;;;;38.58;17.70;;;17.70;99.90;;;;;;4994876;28;20030;-77
2023/07/28 06:17:34;;;;;;;42.88;17.65;;;17.80;99.90;;;;;;4979620;28;20056;-77
2023/07/28 06:20:00;;;;;;;37.08;16.70;;;17.80;99.90;;;;;;4979621;28;20034;-77
2023/07/28 06:22:26;;;;;;;41.15;16.88;;;17.90;99.90;;;;;;4993756;28;20042;-77
2023/07/28 06:24:51;;;;;;;32.75;16.33;;;17.90;99.90;;;;;;4980319;28;20037;-77
2023/07/28 06:27:17;;;;;;;39.42;16.50;;;17.90;99.90;;;;;;4995178;28;20042;-78
2023/07/28 06:29:43;;;;;;;40.08;15.88;;;18.00;99.90;;;;;;4963927;28;20080;-78
2023/07/28 06:32:08;;;;;;;35.88;15.95;;;18.00;99.90;;;;;;4979922;28;20120;-78
2023/07/28 06:34:34;;;;;;;30.73;14.73;;;18.10;99.90;;;;;;4963800;28;20044;-78
2023/07/28 06:37:00;;;;;;;31.98;14.80;;;18.10;99.90;;;;;;4994763;28;20054;-78
2023/07/28 06:39:25;;;;;;;31.38;15.80;;;18.10;99.90;;;;;;4992775;28;20494;-78
2023/07/28 06:41:51;;;;;;;36.05;15.68;;;18.10;99.90;;;;;;4944873;28;20049;-78
2023/07/28 06:44:17;;;;;;;32.50;15.07;;;18.20;99.90;;;;;;4958265;28;20041;-78
2023/07/28 06:46:43;;;;;;;29.98;14.98;;;18.20;99.90;;;;;;4980033;28;20100;-78
2023/07/28 06:49:08;;;;;;;30.92;15.38;;;18.20;99.90;;;;;;4979105;28;20487;-78
2023/07/28 06:51:34;;;;;;;30.85;15.45;;;18.30;99.90;;;;;;4962447;28;20058;-78
2023/07/28 06:54:00;;;;;;;33.33;16.10;;;18.30;99.90;;;;;;4979855;28;20034;-78
2023/07/28 06:56:25;;;;;;;27.45;14.57;;;18.30;99.90;;;;;;4979315;28;20042;-78
2023/07/28 06:58:51;;;;;;;25.20;14.05;;;18.40;99.90;;;;;;4995254;28;20041;-78
2023/07/28 07:01:17;;;;;;;22.30;13.00;;;18.40;99.90;;;;;;4979266;28;20046;-78
2023/07/28 07:03:43;;;;;;;20.77;12.73;;;18.50;99.90;;;;;;4992840;28;20038;-78
2023/07/28 07:06:09;;;;;;;24.50;13.10;;;18.40;99.90;;;;;;4966204;28;20618;-78
2023/07/28 07:08:35;;;;;;;21.58;12.63;;;18.40;99.90;;;;;;4953732;28;20565;-78
2023/07/28 07:11:01;;;;;;;20.73;12.52;;;18.40;99.90;;;;;;4960083;28;20053;-78
2023/07/28 07:13:26;;;;;;;26.20;12.82;;;18.50;99.90;;;;;;4949976;28;20116;-78
2023/07/28 07:15:52;;;;;;;24.75;12.75;;;18.50;99.90;;;;;;4946891;28;20403;-78
2023/07/28 07:18:18;;;;;;;22.90;12.50;;;18.50;99.90;;;;;;4995243;28;20052;-78
2023/07/28 07:20:46;;;;;;;25.70;13.23;;;18.70;99.90;;;;;;4979249;28;20042;-78
2023/07/28 07:23:12;;;;;;;21.52;12.68;;;18.60;99.90;;;;;;4978377;28;20289;-78
2023/07/28 07:25:38;;;;;;;21.38;11.65;;;18.60;99.90;;;;;;4978615;28;20048;-78
2023/07/28 07:28:04;;;;;;;26.70;13.93;;;18.60;99.90;;;;;;4978717;28;20121;-78
2023/07/28 07:30:33;;;;;;;21.25;12.80;;;18.60;99.90;;;;;;4977666;28;20042;-78
2023/07/28 07:32:59;;;;;;;27.45;14.25;;;18.60;99.90;;;;;;4994393;28;20113;-78
2023/07/28 07:35:24;;;;;;;24.98;12.73;;;18.60;99.90;;;;;;4979141;28;20137;-78
2023/07/28 07:37:50;;;;;;;24.30;12.02;;;18.70;99.90;;;;;;4994405;28;20054;-78
2023/07/28 07:40:16;;;;;;;17.85;12.32;;;18.70;99.90;;;;;;4962830;28;20471;-78
2023/07/28 07:42:46;;;;;;;21.15;11.68;;;18.70;99.90;;;;;;4977750;28;20045;-78
2023/07/28 07:45:13;;;;;;;21.45;12.43;;;18.70;99.90;;;;;;4995003;28;20037;-78
2023/07/28 07:47:40;;;;;;;20.38;11.68;;;18.70;99.90;;;;;;4979057;28;20428;-78
2023/07/28 07:50:10;;;;;;;28.65;12.82;;;18.70;99.90;;;;;;4981096;28;20034;-78
2023/07/28 07:52:36;;;;;;;22.25;13.23;;;18.70;99.90;;;;;;4970658;28;20041;-78
2023/07/28 07:55:03;;;;;;;21.40;12.88;;;18.60;99.90;;;;;;4995198;28;20070;-78
2023/07/28 07:57:31;;;;;;;23.42;13.27;;;18.60;99.90;;;;;;4946635;28;20091;-78
2023/07/28 08:00:00;;;;;;;22.85;14.20;;;18.80;99.90;;;;;;4970559;28;20045;-78
2023/07/28 08:02:26;;;;;;;17.83;11.10;;;18.90;99.90;;;;;;4976941;28;20050;-78
2023/07/28 08:04:53;;;;;;;16.63;10.73;;;18.90;99.90;;;;;;4978888;28;20042;-78
2023/07/28 08:07:19;;;;;;;18.45;11.77;;;19.00;99.90;;;;;;4993400;28;20042;-78
2023/07/28 08:09:45;;;;;;;24.38;11.95;;;19.00;99.90;;;;;;4957992;28;20054;-78
2023/07/28 08:12:12;;;;;;;18.13;12.23;;;19.10;99.90;;;;;;4977406;28;20069;-78
2023/07/28 08:14:38;;;;;;;19.33;11.13;;;19.10;99.90;;;;;;4975432;28;20043;-78
2023/07/28 08:17:03;;;;;;;18.45;11.52;;;19.20;99.90;;;;;;4959148;28;20387;-78
2023/07/28 08:19:29;;;;;;;19.63;11.35;;;19.20;99.90;;;;;;4958510;28;20505;-78
2023/07/28 08:21:55;;;;;;;20.13;13.13;;;19.20;99.90;;;;;;4977022;28;20048;-78
2023/07/28 08:24:20;;;;;;;21.63;12.63;;;19.30;99.90;;;;;;4994115;28;20061;-78
2023/07/28 08:26:46;;;;;;;19.65;10.52;;;19.70;99.90;;;;;;4977580;28;20134;-78
2023/07/28 08:29:12;;;;;;;16.30;10.45;;;19.80;99.90;;;;;;4977023;28;20041;-79
2023/07/28 08:31:37;;;;;;;17.23;10.85;;;19.80;99.90;;;;;;4994053;28;20495;-78
2023/07/28 08:34:03;;;;;;;18.85;11.20;;;19.80;99.90;;;;;;4993003;28;20041;-78
2023/07/28 08:36:29;;;;;;;18.08;10.90;;;20.00;99.90;;;;;;4958480;28;20050;-78
2023/07/28 08:38:55;;;;;;;16.92;10.40;;;20.20;99.90;;;;;;4990042;28;20127;-78
2023/07/28 08:41:20;;;;;;;17.63;9.95;;;20.30;99.90;;;;;;4977726;28;20100;-78
2023/07/28 08:43:46;;;;;;;14.32;10.15;;;20.30;99.90;;;;;;4994160;28;20046;-79
2023/07/28 08:46:13;;;;;;;14.43;8.95;;;20.40;99.90;;;;;;4976453;28;20050;-78
2023/07/28 08:48:39;;;;;;;16.95;9.48;;;20.40;99.90;;;;;;4984048;28;20138;-78
2023/07/28 08:51:05;;;;;;;12.48;9.23;;;20.30;99.90;;;;;;4993931;28;20120;-78
2023/07/28 08:53:30;;;;;;;15.43;9.13;;;20.30;99.90;;;;;;4960513;28;20403;-79
2023/07/28 08:55:56;;;;;;;10.60;8.30;;;20.30;99.90;;;;;;4977908;28;20111;-79
2023/07/28 08:58:26;;;;;;;17.52;8.63;;;20.30;99.90;;;;;;5009057;28;20522;-78
2023/07/28 09:00:52;;;;;;;16.35;8.82;;;20.50;99.90;;;;;;4962031;28;20052;-78
2023/07/28 09:03:19;;;;;;;13.80;7.80;;;20.50;99.90;;;;;;4993143;28;20129;-77
2023/07/28 09:05:48;;;;;;;14.98;7.70;;;20.70;99.90;;;;;;4990690;28;20077;-76
2023/07/28 09:08:17;;;;;;;12.25;6.78;;;20.80;99.90;;;;;;4979870;28;20046;-76
2023/07/28 09:10:48;;;;;;;8.65;6.30;;;20.70;99.90;;;;;;4957600;28;20068;-76
2023/07/28 09:13:17;;;;;;;12.05;6.53;;;20.80;99.90;;;;;;4978687;28;20034;-76
2023/07/28 09:15:42;;;;;;;10.30;7.03;;;20.70;99.90;;;;;;4989933;28;20042;-76
2023/07/28 09:18:14;;;;;;;10.63;7.07;;;20.50;99.90;;;;;;4957956;28;20088;-76
2023/07/28 09:20:41;;;;;;;5.90;4.93;;;20.40;99.90;;;;;;4972944;28;20495;-76
2023/07/28 09:23:08;;;;;;;8.55;5.63;;;20.40;99.90;;;;;;4973322;28;20034;-76
2023/07/28 09:25:35;;;;;;;9.02;5.32;;;20.60;99.90;;;;;;4969820;28;20071;-76
2023/07/28 09:28:02;;;;;;;9.02;4.68;;;20.90;99.90;;;;;;4976952;28;20511;-75
2023/07/28 09:30:47;;;;;;;9.52;5.32;;;21.20;99.90;;;;;;4970792;28;20173;-76
2023/07/28 09:33:13;;;;;;;8.80;5.30;;;21.40;99.90;;;;;;4962364;28;20045;-76
2023/07/28 09:35:50;;;;;;;20.60;5.28;;;21.50;99.90;;;;;;4993209;28;20137;-76
2023/07/28 09:38:18;;;;;;;11.18;4.90;;;21.60;99.90;;;;;;4974069;28;20061;-76
2023/07/28 09:40:44;;;;;;;7.15;4.80;;;21.60;99.90;;;;;;4992477;28;20570;-76
2023/07/28 09:43:11;;;;;;;8.50;4.85;;;21.60;99.90;;;;;;4976299;28;20101;-76
2023/07/28 09:45:38;;;;;;;8.38;5.18;;;21.60;99.90;;;;;;4991192;28;20411;-76
2023/07/28 09:48:09;;;;;;;8.65;4.63;;;21.60;99.90;;;;;;4944766;28;20038;-76
2023/07/28 09:50:38;;;;;;;7.40;4.45;;;21.70;99.90;;;;;;4987821;28;20057;-76
2023/07/28 09:53:04;;;;;;;6.03;5.15;;;21.60;99.90;;;;;;4974726;28;20041;-76
2023/07/28 09:55:30;;;;;;;10.00;5.53;;;21.50;99.90;;;;;;5005361;28;20038;-76
2023/07/28 09:58:01;;;;;;;9.93;5.88;;;21.30;99.90;;;;;;4989668;28;20086;-76
2023/07/28 10:00:28;;;;;;;11.15;6.72;;;21.20;99.90;;;;;;4992291;28;20049;-76
2023/07/28 10:02:56;;;;;;;9.50;6.57;;;21.10;99.90;;;;;;4990941;28;20128;-76
2023/07/28 10:05:24;;;;;;;9.60;6.70;;;21.00;99.90;;;;;;5006228;28;20050;-76
2023/07/28 10:07:50;;;;;;;8.73;6.20;;;21.10;99.90;;;;;;4991959;28;20033;-76
2023/07/28 10:10:17;;;;;;;8.75;6.28;;;21.40;99.90;;;;;;4992918;28;20049;-76
2023/07/28 10:12:46;;;;;;;10.55;6.28;;;21.80;99.90;;;;;;4976590;28;20518;-76
2023/07/28 10:15:17;;;;;;;7.43;5.28;;;22.10;99.90;;;;;;4992429;28;20131;-78
2023/07/28 10:17:49;;;;;;;10.25;5.32;;;22.40;99.90;;;;;;4976492;28;20543;-78
2023/07/28 10:20:31;;;;;;;6.55;5.03;;;22.30;99.90;;;;;;4992763;28;20041;-78
2023/07/28 10:23:03;;;;;;;;;;;22.30;99.90;;;;;;4980479;28;20399;-78
2023/07/28 10:25:34;;;;;;;5.60;4.27;;;22.40;99.90;;;;;;4976641;28;19918;-78
2023/07/28 10:27:59;;;;;;;6.18;4.75;;;22.30;99.90;;;;;;4960431;28;20272;-78
2023/07/28 10:30:25;;;;;;;8.02;4.22;;;22.20;99.90;;;;;;4976158;28;20045;-78
2023/07/28 10:32:54;;;;;;;12.93;6.25;;;22.10;99.90;;;;;;4946467;28;20474;-77
2023/07/28 10:35:25;;;;;;;11.80;6.97;;;22.00;99.90;;;;;;4992601;28;20084;-78
2023/07/28 10:37:55;;;;;;;13.55;6.43;;;21.80;99.90;;;;;;4988403;28;20492;-78
2023/07/28 10:40:22;;;;;;;10.13;5.85;;;21.70;99.90;;;;;;4989470;28;20074;-78
2023/07/28 10:42:48;;;;;;;12.13;6.00;;;21.50;99.90;;;;;;4987829;28;20065;-78
2023/07/28 10:45:15;;;;;;;9.23;5.72;;;21.40;99.90;;;;;;4989188;28;20042;-78
2023/07/28 10:47:41;;;;;;;9.35;6.43;;;21.30;99.90;;;;;;4973220;28;20042;-78
2023/07/28 10:50:11;;;;;;;9.38;6.63;;;21.20;99.90;;;;;;4974371;28;20036;-78
2023/07/28 10:52:44;;;;;;;12.20;6.35;;;21.20;99.90;;;;;;4969230;28;20050;-78
2023/07/28 10:55:14;;;;;;;8.00;5.82;;;21.20;99.90;;;;;;4976129;28;20037;-78
2023/07/28 10:57:45;;;;;;;9.70;6.10;;;21.30;99.90;;;;;;4973905;28;20039;-78
2023/07/28 11:00:12;;;;;;;7.90;5.72;;;21.60;99.90;;;;;;4975638;28;20038;-78
2023/07/28 11:02:49;;;;;;;9.43;4.90;;;22.00;99.90;;;;;;4975447;28;20503;-78
2023/07/28 11:05:29;;;;;;;7.72;5.18;;;22.20;99.90;;;;;;4991097;28;20399;-78
2023/07/28 11:07:57;;;;;;;7.72;6.10;;;22.10;99.90;;;;;;4958962;28;20049;-78
2023/07/28 11:10:23;;;;;;;8.90;5.57;;;22.00;99.90;;;;;;5008289;28;20117;-78
2023/07/28 11:12:51;;;;;;;12.55;5.13;;;21.90;99.90;;;;;;4972986;28;20074;-78
2023/07/28 11:15:17;;;;;;;15.40;7.97;;;21.80;99.90;;;;;;4961243;28;20035;-79
2023/07/28 11:17:48;;;;;;;11.40;7.28;;;21.40;99.90;;;;;;4992124;28;20046;-78
2023/07/28 11:20:21;;;;;;;12.25;7.55;;;21.00;99.90;;;;;;4975276;28;20388;-78
2023/07/28 11:22:53;;;;;;;10.85;7.47;;;20.70;99.90;;;;;;4976215;28;20147;-78
2023/07/28 11:25:20;;;;;;;14.75;9.32;;;20.50;99.90;;;;;;4992615;28;20058;-78
2023/07/28 11:27:47;;;;;;;13.68;8.75;;;20.30;99.90;;;;;;4974092;28;20045;-78
2023/07/28 11:30:15;;;;;;;14.38;9.80;;;20.30;99.90;;;;;;4992367;28;20050;-77
2023/07/28 11:32:44;;;;;;;11.93;8.75;;;20.30;99.90;;;;;;4991860;28;20054;-77
2023/07/28 11:35:14;;;;;;;12.38;9.23;;;20.40;99.90;;;;;;4991389;28;20026;-77
2023/07/28 11:37:42;;;;;;;11.45;8.10;;;20.40;99.90;;;;;;4975679;28;20058;-77
2023/07/28 11:40:12;;;;;;;11.65;7.07;;;20.40;99.90;;;;;;4976125;28;20303;-77
2023/07/28 11:42:40;;;;;;;10.98;7.20;;;20.40;99.90;;;;;;4982911;28;20039;-77
2023/07/28 11:45:07;;;;;;;10.90;7.60;;;20.30;99.90;;;;;;4962752;28;20046;-77
2023/07/28 11:47:33;;;;;;;12.00;7.57;;;20.30;99.90;;;;;;4960036;28;20046;-77
2023/07/28 11:50:00;;;;;;;13.23;7.80;;;20.40;99.90;;;;;;4939958;28;20551;-77
2023/07/28 11:52:33;;;;;;;13.15;7.63;;;20.70;99.90;;;;;;4956275;28;20046;-77
2023/07/28 11:55:06;;;;;;;12.70;7.68;;;21.10;99.90;;;;;;4958839;28;20117;-77
2023/07/28 11:57:33;;;;;;;8.82;6.43;;;21.30;99.90;;;;;;4972429;28;20118;-77
2023/07/28 12:00:04;;;;;;;9.30;7.00;;;21.20;99.90;;;;;;4971368;28;20105;-77
2023/07/28 12:02:33;;;;;;;9.50;6.53;;;21.20;99.90;;;;;;4961795;28;20046;-77
2023/07/28 12:04:59;;;;;;;8.98;7.40;;;21.20;99.90;;;;;;4974182;28;20040;-77
2023/07/28 12:07:35;;;;;;;12.25;8.63;;;21.20;99.90;;;;;;4959263;28;20041;-76
2023/07/28 12:10:06;;;;;;;13.40;8.95;;;21.10;99.90;;;;;;4975111;28;20145;-77
2023/07/28 12:12:41;;;;;;;14.20;9.00;;;21.20;99.90;;;;;;4959033;28;20049;-77
2023/07/28 12:15:40;;;;;;;13.40;9.07;;;21.20;99.90;;;;;;4974490;28;20081;-77
2023/07/28 12:18:13;;;;;;;10.10;8.00;;;21.30;99.90;;;;;;4964390;28;20049;-76
2023/07/28 12:20:47;;;;;;;9.77;7.63;;;21.40;99.90;;;;;;4973289;28;20397;-76
2023/07/28 12:23:18;;;;;;;10.27;7.78;;;21.50;99.90;;;;;;4972037;28;20038;-76
2023/07/28 12:25:44;;;;;;;11.07;8.25;;;21.80;99.90;;;;;;4981964;28;20092;-76
2023/07/28 12:28:10;;;;;;;14.15;9.10;;;22.00;99.90;;;;;;4974785;28;20027;-76
2023/07/28 12:30:36;;;;;;;12.43;7.65;;;22.30;99.90;;;;;;4974146;28;20566;-76